< < Back
Terminal Aerodrome Forecast


Current Version              Previous Versions:   1  2  3  4  5  6  7  8  9  

Terminal Aerodrome Forecast

661
FTUS42 KMLB 301125
TAFMCO
TAF
KMCO 301125Z 3012/3112 01003KT P6SM VCSH SCT025 SCT050
     FM301500 08007KT P6SM VCSH SCT030
     FM301800 08010KT P6SM VCSH SCT035
      TEMPO 3018/3021 -SHRA BKN035
     FM310100 09006KT P6SM SCT035 SCT060 BKN250
     FM310600 09003KT P6SM SCT030=

Latest METAR

215
SAUS70 KWBC 301600 RRG
MTRMCO
METAR KMCO 301553Z VRB03KT 10SM FEW034TCU BKN065 BKN085 29/21 A3009 RMK
AO2 RAB05E48 SLP188 TCU E SW P0000 T02890211 $


USA.gov is the U.S. government's official web portal to all federal, state and local government web resources and services.